Cambridge, MA

1:46 PM EST on December 25, 2014 (GMT -0500)
Porter Square | Change Station
CLOSE
Current Station
Personal Weather Station
Location: Cambridge, MA
Elevation: 47 ft
Nearby Weather Stations

Elev 47 ft 42.39 °N, 71.12 °W | Updated 1 minute ago

Partly Cloudy
Partly Cloudy
52.5 °F
Feels Like 52.5 °F
N
0.0
Wind Variable Wind from North
Gusts 0.0 mph

Today
High -- | Low -- °F
--% Chance of Precip.
Yesterday
High -- | Low -- °F
Precip. -- in
7:12 AM 4:17 PM
Waxing Crescent, 18% visible
Pressure 29.60 in
Visibility 10.0 miles
Clouds Scattered Clouds 4000 ft
Scattered Clouds 22000 ft
Dew Point 34 °F
Humidity 49%
Rainfall 0.11 in
Snow Depth Not available.
UV 1 out of 12
Pollen .10 out of 12
Air Quality Not available.
Flu Activity Not available.
METAR KBOS 251754Z 28014G27KT 10SM SCT040 SCT220 11/02 A2960 RMK AO2 PK WND 27027/1751 SLP022 60011 T01060022 10144 20100 51022

More Conditions Fewer Conditions

Pressure 29.60 in
Visibility 10.0 miles
Clouds Scattered Clouds 4000 ft
Scattered Clouds 22000 ft
Dew Point 34 °F
Humidity 49%
Rainfall 0.11 in
Snow Depth Not available.
UV 1 out of 12
Pollen .10 out of 12
Air Quality Not available.
Flu Activity Not available.
METAR KBOS 251754Z 28014G27KT 10SM SCT040 SCT220 11/02 A2960 RMK AO2 PK WND 27027/1751 SLP022 60011 T01060022 10144 20100 51022

More Conditions Fewer Conditions

10-Day Weather Forecast

Almanac

Astronomy

Dec. 25, 2014 Rise Set
Actual Time
Civil Twilight
Nautical Twilight
Astronomical Twilight
Moon
Length of Visible Light
Length of Day
Tomorrow will be .
, % of the Moon is Illuminated

Today's Extremes

State Highs State Lows

Community

WunderPhotos

Upload Photos

1,780,358 photos uploaded!

WunderBlogs® & News

Nearby

Air Quality

  Air Quality AQ Index Pollutant
Not available.

Snow Depth

Station Depth Elevation

Earthquake Activity

City Distance Mag. Time & Date
Minimum magnitude displayed is 2.5.

Coastal Water Temperatures

Place Temperature

Nearby Weather Stations